createdAt,value
2018-04-30T00:00:04.081Z,60.08
2018-04-30T00:01:04.121Z,59.89
2018-04-30T00:02:04.140Z,59.89
2018-04-30T00:03:04.119Z,59.89
2018-04-30T00:04:04.135Z,59.89
2018-04-30T00:05:04.201Z,60.38
2018-04-30T00:06:04.150Z,60.05
2018-04-30T00:07:04.170Z,60.08
2018-04-30T00:08:04.167Z,59.96
2018-04-30T00:09:04.200Z,60.08
2018-04-30T00:10:04.204Z,60.44
2018-04-30T00:11:04.245Z,60.05
2018-04-30T00:12:04.227Z,60.28
2018-04-30T00:13:04.229Z,59.80
2018-04-30T00:14:04.245Z,59.86
2018-04-30T00:15:04.262Z,60.44
2018-04-30T00:16:04.303Z,59.89
2018-04-30T00:17:04.292Z,60.05
2018-04-30T00:18:04.302Z,60.72
2018-04-30T00:19:04.316Z,59.99
2018-04-30T00:20:04.331Z,60.15
2018-04-30T00:21:04.387Z,60.63
2018-04-30T00:22:04.341Z,60.08
2018-04-30T00:23:04.355Z,60.08
2018-04-30T00:24:04.394Z,59.89
2018-04-30T00:25:04.385Z,60.08
2018-04-30T00:26:04.415Z,60.47
2018-04-30T00:27:04.443Z,59.99
2018-04-30T00:28:04.423Z,60.08
2018-04-30T00:29:04.429Z,60.66
2018-04-30T00:30:04.440Z,60.08
2018-04-30T00:31:04.464Z,59.99
2018-04-30T00:32:04.510Z,60.38
2018-04-30T00:33:04.485Z,60.53
2018-04-30T00:34:04.504Z,60.66
2018-04-30T00:35:04.531Z,60.47
2018-04-30T00:36:04.525Z,60.38
2018-04-30T00:37:04.553Z,60.75
2018-04-30T00:38:04.577Z,60.75
2018-04-30T00:39:04.560Z,60.38
2018-04-30T00:40:04.559Z,60.66
2018-04-30T00:41:04.581Z,60.57
2018-04-30T00:42:04.639Z,61.02
2018-04-30T00:43:04.604Z,60.85
2018-04-30T00:44:04.612Z,60.38
2018-04-30T00:45:04.638Z,60.75
2018-04-30T00:46:04.657Z,61.21
2018-04-30T00:47:04.674Z,61.24
2018-04-30T00:48:04.661Z,60.47
2018-04-30T00:49:04.681Z,61.05
2018-04-30T00:50:04.747Z,61.14
2018-04-30T00:51:04.710Z,61.33
2018-04-30T00:52:04.729Z,61.14
2018-04-30T00:53:04.726Z,61.78
2018-04-30T00:54:04.738Z,62.07
2018-04-30T00:55:04.793Z,61.78
2018-04-30T00:56:04.770Z,61.59
2018-04-30T00:57:04.790Z,61.98
2018-04-30T00:58:04.797Z,61.91
2018-04-30T00:59:04.793Z,61.81
2018-04-30T01:00:04.843Z,61.43
2018-04-30T01:01:04.829Z,62.19
2018-04-30T01:02:04.899Z,62.10
2018-04-30T01:03:04.857Z,62.01
2018-04-30T01:04:04.867Z,62.48
2018-04-30T01:05:04.870Z,63.03
2018-04-30T01:06:04.884Z,62.65
2018-04-30T01:07:04.940Z,62.29
2018-04-30T01:08:04.918Z,62.84
2018-04-30T01:09:04.915Z,63.03
2018-04-30T01:10:04.937Z,62.96
2018-04-30T01:11:04.953Z,63.42
2018-04-30T01:12:04.980Z,62.96
2018-04-30T01:13:04.973Z,63.45
2018-04-30T01:14:04.980Z,62.93
2018-04-30T01:15:05.017Z,62.77
2018-04-30T01:16:05.045Z,62.87
2018-04-30T01:17:05.026Z,63.35
2018-04-30T01:18:05.027Z,62.96
2018-04-30T01:19:05.054Z,63.60
2018-04-30T01:20:05.079Z,63.99
2018-04-30T01:21:05.130Z,64.09
2018-04-30T01:22:05.090Z,64.09
2018-04-30T01:23:05.105Z,63.60
2018-04-30T01:24:05.105Z,64.66
2018-04-30T01:25:05.120Z,64.37
2018-04-30T01:26:05.173Z,64.09
2018-04-30T01:27:05.150Z,64.28
2018-04-30T01:28:05.166Z,64.47
2018-04-30T01:29:05.177Z,65.14
2018-04-30T01:30:05.260Z,64.09
2018-04-30T01:31:05.195Z,65.05
2018-04-30T01:32:05.201Z,65.14
2018-04-30T01:33:05.230Z,65.05
2018-04-30T01:34:05.232Z,64.37
2018-04-30T01:35:05.288Z,64.56
2018-04-30T01:36:05.280Z,65.14
2018-04-30T01:37:05.335Z,65.05
2018-04-30T01:38:05.289Z,65.33
2018-04-30T01:39:05.322Z,64.95
2018-04-30T01:40:05.322Z,65.05
2018-04-30T01:41:05.331Z,64.66
2018-04-30T01:42:05.365Z,65.05
2018-04-30T01:43:05.346Z,65.23
2018-04-30T01:44:05.344Z,65.05
2018-04-30T01:45:05.352Z,65.23
2018-04-30T01:46:05.368Z,65.43
2018-04-30T01:47:05.428Z,65.33
2018-04-30T01:48:05.397Z,65.62
2018-04-30T01:49:05.422Z,66.00
2018-04-30T01:50:05.424Z,65.72
2018-04-30T01:51:05.439Z,65.91
2018-04-30T01:52:05.487Z,66.00
2018-04-30T01:53:05.467Z,65.81
2018-04-30T01:54:05.477Z,65.91
2018-04-30T01:55:05.476Z,65.72
2018-04-30T01:56:05.519Z,66.39
2018-04-30T01:57:05.526Z,66.77
2018-04-30T01:58:05.551Z,66.58
2018-04-30T01:59:05.609Z,66.58
2018-04-30T02:00:05.537Z,66.49
2018-04-30T02:01:05.554Z,66.58
2018-04-30T02:02:05.570Z,66.39
2018-04-30T02:03:05.626Z,66.86
2018-04-30T02:04:05.586Z,66.86
2018-04-30T02:05:05.609Z,66.49
2018-04-30T02:06:05.611Z,66.67
2018-04-30T02:07:05.647Z,66.96
2018-04-30T02:08:05.687Z,67.22
2018-04-30T02:09:05.695Z,67.06
2018-04-30T02:10:05.675Z,67.25
2018-04-30T02:11:05.669Z,67.02
2018-04-30T02:12:05.693Z,66.58
2018-04-30T02:13:05.735Z,67.02
2018-04-30T02:14:05.734Z,67.54
2018-04-30T02:15:05.717Z,67.44
2018-04-30T02:16:05.728Z,67.79
2018-04-30T02:17:05.757Z,68.27
2018-04-30T02:18:05.791Z,68.27
2018-04-30T02:19:05.801Z,68.18
2018-04-30T02:20:05.783Z,67.79
2018-04-30T02:21:05.802Z,68.18
2018-04-30T02:22:05.841Z,68.08
2018-04-30T02:23:05.871Z,67.69
2018-04-30T02:24:05.836Z,67.50
2018-04-30T02:25:05.849Z,68.18
2018-04-30T02:26:05.859Z,68.46
2018-04-30T02:27:05.876Z,68.18
2018-04-30T02:28:05.983Z,67.50
2018-04-30T02:29:05.964Z,68.37
2018-04-30T02:30:05.927Z,67.99
2018-04-30T02:31:05.921Z,68.18
2018-04-30T02:32:05.934Z,67.99
2018-04-30T02:33:05.942Z,68.18
2018-04-30T02:34:05.986Z,68.85
2018-04-30T02:35:05.996Z,67.99
2018-04-30T02:36:05.996Z,68.18
2018-04-30T02:37:06.035Z,68.56
2018-04-30T02:38:05.992Z,68.66
2018-04-30T02:39:06.083Z,68.85
2018-04-30T02:40:06.030Z,68.66
2018-04-30T02:41:06.027Z,68.46
2018-04-30T02:42:06.060Z,68.37
2018-04-30T02:43:06.100Z,68.75
2018-04-30T02:44:06.072Z,68.33
2018-04-30T02:45:06.087Z,68.85
2018-04-30T02:46:06.087Z,68.08
2018-04-30T02:47:06.114Z,67.89
2018-04-30T02:48:06.146Z,68.08
2018-04-30T02:49:06.183Z,68.18
2018-04-30T02:50:06.137Z,68.37
2018-04-30T02:51:06.150Z,68.37
2018-04-30T02:52:06.166Z,67.89
2018-04-30T02:53:06.167Z,68.08
2018-04-30T02:54:06.230Z,68.08
2018-04-30T02:55:06.207Z,68.62
2018-04-30T02:56:06.203Z,68.43
2018-04-30T02:57:06.214Z,68.43
2018-04-30T02:58:06.238Z,68.14
2018-04-30T02:59:06.276Z,68.08
2018-04-30T03:00:06.263Z,67.95
2018-04-30T03:01:06.274Z,68.27
2018-04-30T03:02:06.297Z,68.27
2018-04-30T03:03:06.298Z,68.46
2018-04-30T03:04:06.329Z,68.43
2018-04-30T03:05:06.319Z,68.66
2018-04-30T03:06:06.330Z,68.37
2018-04-30T03:07:06.396Z,67.79
2018-04-30T03:08:06.364Z,67.22
2018-04-30T03:09:06.368Z,68.37
2018-04-30T03:10:06.392Z,67.89
2018-04-30T03:11:06.387Z,67.85
2018-04-30T03:12:06.452Z,67.69
2018-04-30T03:13:06.442Z,67.60
2018-04-30T03:14:06.414Z,67.89
2018-04-30T03:15:06.433Z,67.76
2018-04-30T03:16:06.438Z,67.85
2018-04-30T03:17:06.546Z,68.05
2018-04-30T03:18:06.463Z,68.24
2018-04-30T03:19:06.487Z,67.85
2018-04-30T03:20:06.496Z,67.66
2018-04-30T03:21:06.505Z,67.95
2018-04-30T03:22:06.550Z,67.85
2018-04-30T03:23:06.524Z,67.38
2018-04-30T03:24:06.559Z,67.76
2018-04-30T03:25:06.553Z,66.99
2018-04-30T03:26:06.567Z,67.66
2018-04-30T03:27:06.601Z,67.76
2018-04-30T03:28:06.613Z,67.76
2018-04-30T03:29:06.594Z,68.05
2018-04-30T03:30:06.632Z,67.85
2018-04-30T03:31:06.635Z,67.85
2018-04-30T03:32:06.638Z,67.85
2018-04-30T03:33:06.694Z,68.14
2018-04-30T03:34:06.651Z,68.33
2018-04-30T03:35:06.687Z,67.66
2018-04-30T03:36:06.673Z,67.95
2018-04-30T03:37:06.683Z,67.47
2018-04-30T03:38:06.733Z,68.24
2018-04-30T03:39:06.717Z,67.76
2018-04-30T03:40:06.722Z,67.57
2018-04-30T03:41:06.747Z,67.66
2018-04-30T03:42:06.759Z,67.28
2018-04-30T03:43:06.777Z,67.66
2018-04-30T03:44:06.771Z,67.72
2018-04-30T03:45:06.785Z,67.66
2018-04-30T03:46:06.849Z,66.96
2018-04-30T03:47:06.798Z,67.54
2018-04-30T03:48:06.857Z,66.86
2018-04-30T03:49:06.828Z,67.38
2018-04-30T03:50:06.874Z,67.63
2018-04-30T03:51:13.593Z,67.47
2018-04-30T03:52:06.864Z,67.15
2018-04-30T03:53:06.935Z,66.71
2018-04-30T03:54:06.880Z,66.86
2018-04-30T03:55:06.902Z,66.86
2018-04-30T03:56:06.902Z,66.96
2018-04-30T03:57:06.944Z,67.25
2018-04-30T03:58:07.087Z,66.48
2018-04-30T03:59:06.957Z,66.77
2018-04-30T04:00:06.985Z,66.86
2018-04-30T04:01:06.971Z,66.67
2018-04-30T04:02:06.973Z,66.48
2018-04-30T04:03:07.011Z,66.58
2018-04-30T04:04:07.000Z,66.19
2018-04-30T04:05:07.047Z,66.77
2018-04-30T04:06:07.025Z,66.13
2018-04-30T04:07:07.033Z,66.48
2018-04-30T04:08:07.060Z,65.91
2018-04-30T04:09:07.058Z,65.81
2018-04-30T04:10:07.151Z,65.55
2018-04-30T04:11:07.082Z,65.71
2018-04-30T04:12:07.113Z,65.94
2018-04-30T04:13:07.107Z,65.26
2018-04-30T04:14:07.122Z,65.26
2018-04-30T04:15:07.173Z,65.26
2018-04-30T04:16:07.141Z,65.14
2018-04-30T04:17:07.154Z,65.42
2018-04-30T04:18:07.160Z,64.76
2018-04-30T04:19:07.177Z,65.14
2018-04-30T04:20:07.223Z,64.98
2018-04-30T04:21:07.207Z,64.59
2018-04-30T04:22:07.219Z,64.59
2018-04-30T04:23:07.220Z,64.59
2018-04-30T04:24:07.250Z,64.31
2018-04-30T04:25:07.281Z,64.22
2018-04-30T04:26:07.262Z,64.02
2018-04-30T04:27:07.269Z,64.22
2018-04-30T04:28:07.273Z,64.22
2018-04-30T04:29:07.282Z,64.50
2018-04-30T04:30:08.004Z,64.50
2018-04-30T04:31:07.316Z,64.31
2018-04-30T04:32:07.327Z,64.02
2018-04-30T04:33:07.404Z,63.92
2018-04-30T04:34:07.351Z,64.69
2018-04-30T04:35:07.371Z,64.22
2018-04-30T04:36:07.388Z,64.02
2018-04-30T04:37:07.421Z,63.92
2018-04-30T04:38:07.400Z,63.73
2018-04-30T04:39:07.406Z,63.54
2018-04-30T04:40:07.410Z,63.45
2018-04-30T04:41:07.422Z,63.54
2018-04-30T04:42:07.474Z,63.06
2018-04-30T04:43:07.456Z,63.45
2018-04-30T04:44:07.481Z,63.45
2018-04-30T04:45:07.494Z,62.96
2018-04-30T04:46:07.492Z,62.39
2018-04-30T04:47:07.559Z,62.62
2018-04-30T04:48:07.518Z,62.23
2018-04-30T04:49:07.522Z,62.04
2018-04-30T04:50:07.549Z,61.56
2018-04-30T04:51:07.553Z,61.02
2018-04-30T04:52:07.614Z,60.53
2018-04-30T04:53:07.600Z,60.08
2018-04-30T04:54:07.589Z,59.32
2018-04-30T04:55:07.620Z,58.84
2018-04-30T04:56:07.614Z,58.58
2018-04-30T04:57:07.627Z,57.71
2018-04-30T04:58:07.624Z,58.13
2018-04-30T04:59:07.648Z,56.56
2018-04-30T05:00:07.678Z,56.46
2018-04-30T05:01:07.717Z,56.66
2018-04-30T05:02:07.688Z,57.04
2018-04-30T05:03:07.704Z,57.07
2018-04-30T05:04:07.740Z,56.40
2018-04-30T05:05:07.803Z,56.30
2018-04-30T05:06:07.735Z,55.85
2018-04-30T05:07:07.746Z,55.11
2018-04-30T05:08:07.756Z,54.53
2018-04-30T05:09:07.793Z,53.47
2018-04-30T05:10:07.828Z,52.83
2018-04-30T05:11:07.788Z,52.63
2018-04-30T05:12:07.812Z,52.44
2018-04-30T05:13:07.832Z,52.73
2018-04-30T05:14:07.869Z,52.80
2018-04-30T05:15:07.840Z,52.61
2018-04-30T05:16:07.849Z,53.09
2018-04-30T05:17:07.862Z,52.92
2018-04-30T05:18:07.885Z,52.34
2018-04-30T05:19:07.930Z,52.06
2018-04-30T05:20:08.000Z,52.25
2018-04-30T05:21:07.940Z,51.67
2018-04-30T05:22:07.942Z,51.96
2018-04-30T05:23:07.942Z,52.15
2018-04-30T05:24:07.993Z,52.42
2018-04-30T05:25:07.975Z,52.70
2018-04-30T05:26:07.988Z,52.51
2018-04-30T05:27:07.992Z,52.80
2018-04-30T05:28:08.046Z,52.25
2018-04-30T05:29:08.059Z,51.60
2018-04-30T05:30:08.078Z,50.57
2018-04-30T05:31:08.053Z,50.01
2018-04-30T05:32:08.070Z,49.73
2018-04-30T05:33:08.083Z,49.82
2018-04-30T05:34:08.087Z,49.24
2018-04-30T05:35:08.127Z,48.97
2018-04-30T05:36:08.181Z,48.79
2018-04-30T05:37:08.150Z,48.23
2018-04-30T05:38:08.145Z,47.75
2018-04-30T05:39:08.168Z,47.77
2018-04-30T05:40:08.176Z,46.71
2018-04-30T05:41:08.703Z,45.67
2018-04-30T05:42:08.211Z,45.96
2018-04-30T05:43:08.239Z,45.96
2018-04-30T05:44:08.232Z,45.55
2018-04-30T05:45:08.244Z,46.20
2018-04-30T05:46:08.262Z,47.45
2018-04-30T05:47:08.323Z,47.45
2018-04-30T05:48:08.368Z,47.75
2018-04-30T05:49:08.340Z,47.65
2018-04-30T05:50:08.321Z,47.63
2018-04-30T05:51:08.335Z,47.53
2018-04-30T05:52:08.367Z,47.72
2018-04-30T05:53:08.367Z,48.47
2018-04-30T05:54:08.369Z,48.38
2018-04-30T05:55:08.479Z,48.76
2018-04-30T05:56:08.395Z,48.86
2018-04-30T05:57:08.452Z,49.34
2018-04-30T05:58:08.443Z,49.73
2018-04-30T05:59:08.497Z,49.70
2018-04-30T06:00:08.454Z,50.06
2018-04-30T06:01:08.514Z,50.83
2018-04-30T06:02:08.549Z,51.86
2018-04-30T06:03:08.540Z,51.57
2018-04-30T06:04:08.536Z,52.06
2018-04-30T06:05:08.532Z,52.47
2018-04-30T06:06:08.537Z,52.08
2018-04-30T06:07:08.554Z,51.89
2018-04-30T06:08:08.607Z,51.70
2018-04-30T06:09:08.586Z,51.79
2018-04-30T06:10:08.610Z,52.08
2018-04-30T06:11:08.630Z,51.98
2018-04-30T06:12:08.729Z,51.60
2018-04-30T06:13:08.709Z,52.27
2018-04-30T06:14:08.657Z,52.75
2018-04-30T06:15:08.757Z,52.56
2018-04-30T06:16:08.676Z,52.83
2018-04-30T06:17:08.696Z,52.85
2018-04-30T06:18:08.740Z,52.83
2018-04-30T06:19:08.723Z,53.31
2018-04-30T06:20:08.727Z,53.50
2018-04-30T06:21:08.761Z,53.78
2018-04-30T06:22:08.764Z,53.98
2018-04-30T06:23:08.961Z,53.40
2018-04-30T06:24:08.790Z,53.02
2018-04-30T06:25:08.802Z,53.31
2018-04-30T06:26:08.827Z,53.23
2018-04-30T06:27:08.828Z,53.14
2018-04-30T06:28:08.888Z,52.95
2018-04-30T06:29:08.859Z,52.95
2018-04-30T06:30:08.861Z,52.97
2018-04-30T06:31:08.877Z,52.78
2018-04-30T06:32:08.897Z,52.59
2018-04-30T06:33:08.934Z,52.87
2018-04-30T06:34:08.926Z,53.07
2018-04-30T06:35:08.925Z,53.27
2018-04-30T06:36:08.958Z,53.27
2018-04-30T06:37:08.965Z,53.65
2018-04-30T06:38:09.011Z,53.84
2018-04-30T06:39:09.009Z,53.17
2018-04-30T06:40:08.996Z,53.65
2018-04-30T06:41:09.026Z,53.17
2018-04-30T06:42:09.033Z,53.27
2018-04-30T06:43:09.073Z,53.17
2018-04-30T06:44:09.057Z,53.27
2018-04-30T06:45:09.071Z,53.36
2018-04-30T06:46:09.125Z,53.65
2018-04-30T06:47:09.102Z,53.27
2018-04-30T06:48:09.129Z,53.55
2018-04-30T06:49:09.129Z,54.13
2018-04-30T06:50:09.135Z,53.17
2018-04-30T06:51:09.195Z,53.55
2018-04-30T06:52:09.165Z,53.45
2018-04-30T06:53:09.174Z,53.55
2018-04-30T06:54:09.188Z,53.65
2018-04-30T06:55:09.337Z,53.27
2018-04-30T06:56:09.253Z,53.74
2018-04-30T06:57:09.253Z,54.42
2018-04-30T06:58:09.300Z,54.22
2018-04-30T06:59:09.297Z,54.52
2018-04-30T07:00:09.269Z,54.22
2018-04-30T07:01:09.296Z,53.36
2018-04-30T07:02:09.328Z,53.74
2018-04-30T07:03:09.318Z,54.22
2018-04-30T07:04:09.380Z,54.22
2018-04-30T07:05:09.355Z,54.42
2018-04-30T07:06:09.360Z,54.22
2018-04-30T07:07:09.376Z,54.13
2018-04-30T07:08:09.381Z,54.42
2018-04-30T07:09:09.532Z,54.42
2018-04-30T07:10:09.500Z,54.03
2018-04-30T07:11:09.429Z,55.00
2018-04-30T07:12:09.435Z,54.90
2018-04-30T07:13:09.460Z,54.90
2018-04-30T07:14:09.594Z,54.90
2018-04-30T07:15:09.477Z,54.80
2018-04-30T07:16:09.491Z,55.09
2018-04-30T07:17:09.521Z,54.71
2018-04-30T07:18:09.542Z,55.02
2018-04-30T07:19:09.576Z,54.80
2018-04-30T07:20:09.640Z,55.22
2018-04-30T07:21:09.571Z,54.93
2018-04-30T07:22:09.577Z,55.12
2018-04-30T07:23:09.606Z,55.12
2018-04-30T07:24:09.747Z,55.70
2018-04-30T07:25:09.683Z,55.12
2018-04-30T07:26:09.645Z,55.12
2018-04-30T07:27:09.658Z,54.93
2018-04-30T07:28:09.668Z,55.41
2018-04-30T07:29:09.671Z,54.83
2018-04-30T07:30:09.722Z,55.12
2018-04-30T07:31:09.707Z,55.31
2018-04-30T07:32:09.710Z,55.60
2018-04-30T07:33:09.800Z,55.31
2018-04-30T07:34:09.739Z,55.31
2018-04-30T07:35:09.811Z,56.09
2018-04-30T07:36:09.835Z,55.60
2018-04-30T07:37:09.792Z,55.79
2018-04-30T07:38:09.827Z,55.51
2018-04-30T07:39:09.868Z,55.60
2018-04-30T07:40:09.839Z,56.09
2018-04-30T07:41:09.842Z,56.01
2018-04-30T07:42:09.859Z,55.24
2018-04-30T07:43:09.890Z,55.15
2018-04-30T07:44:09.888Z,54.96
2018-04-30T07:45:09.898Z,55.24
2018-04-30T07:46:09.932Z,54.96
2018-04-30T07:47:09.969Z,55.44
2018-04-30T07:48:09.942Z,55.34
2018-04-30T07:49:10.053Z,55.05
2018-04-30T07:50:09.963Z,55.05
2018-04-30T07:51:09.988Z,55.05
2018-04-30T07:52:10.031Z,55.24
2018-04-30T07:53:10.017Z,55.34
2018-04-30T07:54:10.037Z,55.63
2018-04-30T07:55:10.044Z,55.24
2018-04-30T07:56:10.061Z,55.56
2018-04-30T07:57:10.125Z,55.36
2018-04-30T07:58:10.107Z,55.46
2018-04-30T07:59:10.096Z,55.24
2018-04-30T08:00:10.108Z,56.24
2018-04-30T08:01:10.131Z,56.24
2018-04-30T08:02:10.185Z,55.76
2018-04-30T08:03:10.310Z,55.46
2018-04-30T08:04:10.169Z,56.14
2018-04-30T08:05:10.178Z,55.36
2018-04-30T08:06:10.189Z,55.36
2018-04-30T08:07:10.255Z,55.36
2018-04-30T08:08:10.230Z,56.14
2018-04-30T08:09:10.300Z,56.04
2018-04-30T08:10:10.249Z,55.66
2018-04-30T08:11:10.303Z,55.94
2018-04-30T08:12:10.446Z,56.43
2018-04-30T08:13:10.351Z,55.85
2018-04-30T08:14:10.340Z,55.66
2018-04-30T08:15:10.334Z,56.52
2018-04-30T08:16:10.345Z,56.24
2018-04-30T08:17:10.348Z,57.01
2018-04-30T08:18:10.403Z,55.56
2018-04-30T08:19:10.386Z,56.24
2018-04-30T08:20:10.390Z,55.98
2018-04-30T08:21:10.420Z,56.07
2018-04-30T08:22:10.437Z,55.88
2018-04-30T08:23:10.518Z,56.56
2018-04-30T08:24:10.493Z,56.56
2018-04-30T08:25:10.470Z,56.46
2018-04-30T08:26:10.491Z,55.68
2018-04-30T08:27:10.509Z,56.16
2018-04-30T08:28:10.560Z,56.56
2018-04-30T08:29:10.572Z,55.98
2018-04-30T08:30:10.566Z,55.40
2018-04-30T08:31:10.562Z,55.68
2018-04-30T08:32:10.575Z,55.88
2018-04-30T08:33:10.592Z,55.98
2018-04-30T08:34:10.649Z,56.07
2018-04-30T08:35:10.617Z,56.26
2018-04-30T08:36:10.626Z,55.88
2018-04-30T08:37:10.639Z,55.90
2018-04-30T08:38:10.670Z,55.71
2018-04-30T08:39:10.693Z,55.42
2018-04-30T08:40:10.687Z,55.42
2018-04-30T08:41:10.759Z,55.52
2018-04-30T08:42:10.741Z,55.42
2018-04-30T08:43:10.735Z,56.10
2018-04-30T08:44:10.752Z,55.42
2018-04-30T08:45:10.779Z,55.71
2018-04-30T08:46:10.819Z,55.71
2018-04-30T08:47:10.795Z,55.04
2018-04-30T08:48:10.819Z,55.23
2018-04-30T08:49:10.882Z,55.04
2018-04-30T08:50:10.842Z,55.33
2018-04-30T08:51:10.893Z,54.97
2018-04-30T08:52:10.937Z,54.94
2018-04-30T08:53:10.889Z,55.26
2018-04-30T08:54:10.949Z,54.94
2018-04-30T08:55:10.904Z,54.55
2018-04-30T08:56:10.922Z,54.49
2018-04-30T08:57:10.945Z,55.13
2018-04-30T08:58:10.964Z,54.97
2018-04-30T08:59:11.043Z,55.26
2018-04-30T09:00:10.976Z,55.55
2018-04-30T09:01:11.001Z,54.49
2018-04-30T09:02:11.027Z,54.49
2018-04-30T09:03:11.036Z,55.16
2018-04-30T09:04:11.090Z,55.35
2018-04-30T09:05:11.078Z,54.68
2018-04-30T09:06:11.093Z,54.39
2018-04-30T09:07:11.093Z,54.49
2018-04-30T09:08:11.097Z,54.39
2018-04-30T09:09:11.175Z,54.97
2018-04-30T09:10:11.153Z,54.97
2018-04-30T09:11:11.153Z,54.90
2018-04-30T09:12:11.182Z,54.87
2018-04-30T09:13:11.182Z,54.77
2018-04-30T09:14:11.283Z,53.16
2018-04-30T09:15:11.212Z,53.64
2018-04-30T09:16:11.218Z,53.74
2018-04-30T09:17:11.232Z,53.35
2018-04-30T09:18:11.262Z,53.55
2018-04-30T09:19:11.326Z,52.87
2018-04-30T09:20:11.290Z,52.67
2018-04-30T09:21:11.303Z,52.87
2018-04-30T09:22:11.311Z,52.77
2018-04-30T09:23:11.333Z,52.19
2018-04-30T09:24:11.394Z,52.19
2018-04-30T09:25:11.371Z,52.77
2018-04-30T09:26:11.373Z,52.87
2018-04-30T09:27:11.397Z,52.97
2018-04-30T09:28:11.497Z,52.19
2018-04-30T09:29:11.469Z,52.58
2018-04-30T09:30:11.485Z,52.70
2018-04-30T09:31:11.465Z,52.22
2018-04-30T09:32:11.496Z,52.31
2018-04-30T09:33:11.502Z,52.51
2018-04-30T09:34:11.498Z,52.22
2018-04-30T09:35:11.543Z,52.61
2018-04-30T09:36:11.605Z,52.80
2018-04-30T09:37:11.578Z,53.09
2018-04-30T09:38:11.563Z,52.41
2018-04-30T09:39:11.573Z,52.12
2018-04-30T09:40:11.600Z,51.73
2018-04-30T09:41:11.612Z,51.35
2018-04-30T09:42:11.654Z,51.73
2018-04-30T09:43:11.634Z,51.64
2018-04-30T09:44:11.665Z,51.15
2018-04-30T09:45:11.672Z,50.76
2018-04-30T09:46:11.726Z,51.06
2018-04-30T09:47:11.706Z,50.28
2018-04-30T09:48:11.735Z,50.28
2018-04-30T09:49:11.830Z,50.18
2018-04-30T09:50:11.745Z,50.09
2018-04-30T09:51:11.802Z,49.99
2018-04-30T09:52:11.767Z,49.99
2018-04-30T09:53:11.785Z,49.60
2018-04-30T09:54:11.883Z,50.09
2018-04-30T09:55:11.841Z,50.38
2018-04-30T09:56:11.859Z,49.90
2018-04-30T09:57:11.904Z,49.80
2018-04-30T09:58:11.947Z,49.80
2018-04-30T09:59:11.918Z,49.90
2018-04-30T10:00:11.918Z,49.80
2018-04-30T10:01:11.929Z,49.92
2018-04-30T10:02:11.941Z,50.02
2018-04-30T10:03:11.942Z,50.50
2018-04-30T10:04:12.011Z,50.21
2018-04-30T10:05:11.973Z,50.50
2018-04-30T10:06:11.998Z,50.40
2018-04-30T10:07:12.018Z,50.50
2018-04-30T10:08:12.041Z,51.08
2018-04-30T10:09:12.122Z,50.70
2018-04-30T10:10:12.068Z,50.89
2018-04-30T10:11:12.088Z,50.79
2018-04-30T10:12:12.106Z,51.08
2018-04-30T10:13:12.116Z,50.40
2018-04-30T10:14:12.173Z,50.21
2018-04-30T10:15:12.136Z,49.92
2018-04-30T10:16:12.405Z,50.31
2018-04-30T10:17:12.163Z,50.31
2018-04-30T10:18:12.213Z,50.50
2018-04-30T10:19:12.251Z,51.10
2018-04-30T10:20:12.215Z,50.82
2018-04-30T10:21:12.243Z,51.76
2018-04-30T10:22:12.258Z,51.78
2018-04-30T10:23:12.265Z,51.88
2018-04-30T10:24:12.334Z,51.95
2018-04-30T10:25:12.312Z,52.08
2018-04-30T10:26:12.324Z,52.14
2018-04-30T10:27:12.324Z,52.05
2018-04-30T10:28:12.350Z,51.98
2018-04-30T10:29:12.498Z,51.68
2018-04-30T10:30:12.378Z,51.86
2018-04-30T10:31:12.406Z,51.86
2018-04-30T10:32:12.422Z,51.66
2018-04-30T10:33:12.429Z,51.86
2018-04-30T10:34:12.472Z,51.68
2018-04-30T10:35:12.462Z,51.50
2018-04-30T10:36:12.477Z,51.66
2018-04-30T10:37:12.498Z,52.05
2018-04-30T10:38:12.511Z,51.47
2018-04-30T10:39:12.561Z,51.66
2018-04-30T10:40:12.564Z,51.66
2018-04-30T10:41:12.561Z,51.28
2018-04-30T10:42:12.559Z,51.28
2018-04-30T10:43:12.610Z,50.79
2018-04-30T10:44:12.644Z,50.98
2018-04-30T10:45:12.623Z,51.08
2018-04-30T10:46:12.635Z,50.50
2018-04-30T10:47:12.663Z,50.89
2018-04-30T10:48:12.675Z,50.40
2018-04-30T10:49:12.726Z,50.79
2018-04-30T10:50:12.843Z,50.89
2018-04-30T10:51:12.715Z,50.48
2018-04-30T10:52:12.718Z,50.18
2018-04-30T10:53:12.739Z,50.18
2018-04-30T10:54:12.782Z,49.51
2018-04-30T10:55:12.832Z,49.99
2018-04-30T10:56:12.795Z,50.09
2018-04-30T10:57:12.844Z,50.09
2018-04-30T10:58:12.849Z,50.09
2018-04-30T10:59:12.854Z,49.51
2018-04-30T11:00:12.937Z,49.77
2018-04-30T11:01:12.878Z,50.35
2018-04-30T11:02:12.895Z,49.60
2018-04-30T11:03:12.900Z,49.97
2018-04-30T11:04:12.923Z,50.26
2018-04-30T11:05:12.972Z,49.58
2018-04-30T11:06:12.960Z,49.49
2018-04-30T11:07:12.976Z,49.58
2018-04-30T11:08:12.979Z,50.35
2018-04-30T11:09:13.002Z,50.07
2018-04-30T11:10:13.049Z,49.58
2018-04-30T11:11:13.072Z,49.77
2018-04-30T11:12:13.087Z,49.58
2018-04-30T11:13:13.069Z,49.49
2018-04-30T11:14:13.073Z,49.39
2018-04-30T11:15:13.095Z,49.19
2018-04-30T11:16:13.102Z,49.97
2018-04-30T11:17:13.218Z,49.77
2018-04-30T11:18:13.152Z,49.58
2018-04-30T11:19:13.160Z,49.29
2018-04-30T11:20:13.176Z,49.19
2018-04-30T11:21:13.193Z,49.49
2018-04-30T11:22:13.194Z,50.16
2018-04-30T11:23:13.328Z,49.55
2018-04-30T11:24:13.222Z,49.58
2018-04-30T11:25:13.249Z,49.29
2018-04-30T11:26:13.255Z,49.58
2018-04-30T11:27:13.289Z,49.49
2018-04-30T11:28:13.316Z,49.85
2018-04-30T11:29:13.312Z,50.04
2018-04-30T11:30:13.310Z,50.23
2018-04-30T11:31:13.381Z,49.75
2018-04-30T11:32:13.380Z,49.27
2018-04-30T11:33:13.375Z,49.46
2018-04-30T11:34:13.495Z,50.07
2018-04-30T11:35:13.410Z,49.65
2018-04-30T11:36:13.460Z,49.46
2018-04-30T11:37:13.420Z,50.04
2018-04-30T11:38:13.436Z,53.42
2018-04-30T11:39:13.538Z,55.07
2018-04-30T11:40:13.478Z,53.13
2018-04-30T11:41:13.561Z,52.55
2018-04-30T11:42:13.543Z,51.49
2018-04-30T11:43:13.520Z,51.78
2018-04-30T11:44:13.538Z,51.29
2018-04-30T11:45:13.617Z,51.59
2018-04-30T11:46:13.575Z,51.87
2018-04-30T11:47:13.624Z,51.01
2018-04-30T11:48:13.590Z,51.59
2018-04-30T11:49:13.616Z,51.20
2018-04-30T11:50:13.667Z,50.91
2018-04-30T11:51:13.645Z,51.01
2018-04-30T11:52:13.662Z,50.52
2018-04-30T11:53:13.669Z,50.52
2018-04-30T11:54:13.679Z,50.21
2018-04-30T11:55:13.768Z,50.21
2018-04-30T11:56:13.725Z,50.11
2018-04-30T11:57:13.749Z,50.33
2018-04-30T11:58:13.750Z,50.21
2018-04-30T11:59:13.785Z,50.11
2018-04-30T12:00:13.815Z,49.63
2018-04-30T12:01:13.851Z,50.11
2018-04-30T12:02:13.827Z,49.85
2018-04-30T12:03:13.817Z,49.55
2018-04-30T12:04:13.847Z,49.55
2018-04-30T12:05:13.908Z,49.46
2018-04-30T12:06:13.905Z,48.88
2018-04-30T12:07:14.235Z,48.97
2018-04-30T12:08:13.912Z,49.17
2018-04-30T12:09:13.918Z,49.07
2018-04-30T12:10:13.935Z,48.88
2018-04-30T12:11:13.959Z,48.97
2018-04-30T12:12:13.994Z,48.79
2018-04-30T12:13:13.991Z,48.97
2018-04-30T12:14:15.066Z,48.49
2018-04-30T12:15:14.126Z,48.30
2018-04-30T12:16:14.111Z,47.53
2018-04-30T12:17:14.073Z,47.91
2018-04-30T12:18:14.057Z,47.63
2018-04-30T12:19:14.072Z,46.75
2018-04-30T12:20:14.084Z,45.89
2018-04-30T12:21:14.128Z,46.08
2018-04-30T12:22:14.191Z,45.40
2018-04-30T12:23:14.146Z,45.01
2018-04-30T12:24:14.159Z,45.31
2018-04-30T12:25:14.216Z,45.98
2018-04-30T12:26:14.198Z,45.69
2018-04-30T12:27:14.205Z,46.17
2018-04-30T12:28:14.213Z,46.56
2018-04-30T12:29:14.219Z,46.85
2018-04-30T12:30:14.290Z,46.37
2018-04-30T12:31:14.280Z,46.17
2018-04-30T12:32:14.288Z,46.37
2018-04-30T12:33:14.316Z,45.89
2018-04-30T12:34:14.307Z,45.98
2018-04-30T12:35:14.377Z,46.27
2018-04-30T12:36:14.325Z,46.66
2018-04-30T12:37:14.387Z,46.47
2018-04-30T12:38:14.373Z,46.75
2018-04-30T12:39:14.381Z,46.66
2018-04-30T12:40:14.447Z,46.66
2018-04-30T12:41:14.404Z,46.17
2018-04-30T12:42:14.424Z,45.89
2018-04-30T12:43:14.444Z,45.59
2018-04-30T12:44:14.492Z,45.69
2018-04-30T12:45:14.477Z,45.59
2018-04-30T12:46:14.491Z,45.21
2018-04-30T12:47:14.512Z,44.43
2018-04-30T12:48:14.517Z,44.24
2018-04-30T12:49:14.554Z,44.53
2018-04-30T12:50:14.557Z,44.82
2018-04-30T12:51:14.577Z,44.53
2018-04-30T12:52:14.629Z,43.95